sensor_id;sensor_type;location;lat;lon;timestamp;P1;durP1;ratioP1;P2;durP2;ratioP2
15490;SDS011;7847;50.930;4.336;2022-08-19T00:00:20;0.10;;;0.10;;
15490;SDS011;7847;50.930;4.336;2022-08-19T00:02:46;0.10;;;0.10;;
15490;SDS011;7847;50.930;4.336;2022-08-19T00:05:13;0.10;;;0.10;;
15490;SDS011;7847;50.930;4.336;2022-08-19T00:07:40;0.00;;;0.00;;
15490;SDS011;7847;50.930;4.336;2022-08-19T00:10:08;0.10;;;0.10;;
15490;SDS011;7847;50.930;4.336;2022-08-19T00:12:34;0.00;;;0.00;;
15490;SDS011;7847;50.930;4.336;2022-08-19T00:15:01;0.10;;;0.10;;
15490;SDS011;7847;50.930;4.336;2022-08-19T00:17:27;0.10;;;0.10;;
15490;SDS011;7847;50.930;4.336;2022-08-19T00:19:53;0.10;;;0.10;;
15490;SDS011;7847;50.930;4.336;2022-08-19T00:22:19;0.10;;;0.10;;
15490;SDS011;7847;50.930;4.336;2022-08-19T00:24:45;0.10;;;0.10;;
15490;SDS011;7847;50.930;4.336;2022-08-19T00:27:12;0.10;;;0.10;;
15490;SDS011;7847;50.930;4.336;2022-08-19T00:29:38;0.10;;;0.10;;
15490;SDS011;7847;50.930;4.336;2022-08-19T00:32:04;0.10;;;0.10;;
15490;SDS011;7847;50.930;4.336;2022-08-19T00:34:31;0.10;;;0.10;;
15490;SDS011;7847;50.930;4.336;2022-08-19T00:36:58;0.10;;;0.10;;
15490;SDS011;7847;50.930;4.336;2022-08-19T00:39:24;0.10;;;0.10;;
15490;SDS011;7847;50.930;4.336;2022-08-19T00:41:51;0.10;;;0.10;;
15490;SDS011;7847;50.930;4.336;2022-08-19T00:44:21;0.10;;;0.10;;
15490;SDS011;7847;50.930;4.336;2022-08-19T00:46:49;0.10;;;0.10;;
15490;SDS011;7847;50.930;4.336;2022-08-19T00:49:23;0.10;;;0.10;;
15490;SDS011;7847;50.930;4.336;2022-08-19T00:51:53;0.10;;;0.10;;
15490;SDS011;7847;50.930;4.336;2022-08-19T00:54:21;0.10;;;0.10;;
15490;SDS011;7847;50.930;4.336;2022-08-19T00:56:47;0.10;;;0.10;;
15490;SDS011;7847;50.930;4.336;2022-08-19T00:59:14;0.10;;;0.10;;
15490;SDS011;7847;50.930;4.336;2022-08-19T01:01:41;0.10;;;0.10;;
15490;SDS011;7847;50.930;4.336;2022-08-19T01:04:07;0.10;;;0.10;;
15490;SDS011;7847;50.930;4.336;2022-08-19T01:06:33;0.10;;;0.10;;
15490;SDS011;7847;50.930;4.336;2022-08-19T01:09:00;0.10;;;0.10;;
15490;SDS011;7847;50.930;4.336;2022-08-19T01:11:26;0.10;;;0.10;;
15490;SDS011;7847;50.930;4.336;2022-08-19T01:13:53;0.10;;;0.10;;
15490;SDS011;7847;50.930;4.336;2022-08-19T01:16:20;0.10;;;0.10;;
15490;SDS011;7847;50.930;4.336;2022-08-19T01:18:47;0.10;;;0.10;;
15490;SDS011;7847;50.930;4.336;2022-08-19T01:21:34;0.10;;;0.10;;
15490;SDS011;7847;50.930;4.336;2022-08-19T01:24:02;0.10;;;0.10;;
15490;SDS011;7847;50.930;4.336;2022-08-19T01:26:28;0.10;;;0.10;;
15490;SDS011;7847;50.930;4.336;2022-08-19T01:28:56;0.10;;;0.10;;
15490;SDS011;7847;50.930;4.336;2022-08-19T01:31:24;0.10;;;0.10;;
15490;SDS011;7847;50.930;4.336;2022-08-19T01:33:51;0.10;;;0.10;;
15490;SDS011;7847;50.930;4.336;2022-08-19T01:36:22;0.03;;;0.03;;
15490;SDS011;7847;50.930;4.336;2022-08-19T01:38:50;0.10;;;0.10;;
15490;SDS011;7847;50.930;4.336;2022-08-19T01:41:17;0.10;;;0.10;;
15490;SDS011;7847;50.930;4.336;2022-08-19T01:43:43;0.10;;;0.10;;
15490;SDS011;7847;50.930;4.336;2022-08-19T01:46:09;0.10;;;0.10;;
15490;SDS011;7847;50.930;4.336;2022-08-19T01:48:37;0.10;;;0.10;;
15490;SDS011;7847;50.930;4.336;2022-08-19T01:51:03;0.10;;;0.10;;
15490;SDS011;7847;50.930;4.336;2022-08-19T01:53:29;0.10;;;0.10;;
15490;SDS011;7847;50.930;4.336;2022-08-19T01:55:56;0.10;;;0.10;;
15490;SDS011;7847;50.930;4.336;2022-08-19T01:58:22;0.10;;;0.10;;
15490;SDS011;7847;50.930;4.336;2022-08-19T02:00:50;0.10;;;0.10;;
15490;SDS011;7847;50.930;4.336;2022-08-19T02:03:16;0.10;;;0.10;;
15490;SDS011;7847;50.930;4.336;2022-08-19T02:05:42;0.10;;;0.10;;
15490;SDS011;7847;50.930;4.336;2022-08-19T02:08:09;0.00;;;0.00;;
15490;SDS011;7847;50.930;4.336;2022-08-19T02:10:38;0.10;;;0.10;;
15490;SDS011;7847;50.930;4.336;2022-08-19T02:13:04;0.10;;;0.10;;
15490;SDS011;7847;50.930;4.336;2022-08-19T02:15:30;0.10;;;0.10;;
15490;SDS011;7847;50.930;4.336;2022-08-19T02:17:57;0.10;;;0.10;;
15490;SDS011;7847;50.930;4.336;2022-08-19T02:20:23;0.10;;;0.10;;
15490;SDS011;7847;50.930;4.336;2022-08-19T02:22:49;0.10;;;0.10;;
15490;SDS011;7847;50.930;4.336;2022-08-19T02:25:16;0.10;;;0.10;;
15490;SDS011;7847;50.930;4.336;2022-08-19T02:27:42;0.10;;;0.10;;
15490;SDS011;7847;50.930;4.336;2022-08-19T02:30:11;0.10;;;0.10;;
15490;SDS011;7847;50.930;4.336;2022-08-19T02:32:38;0.10;;;0.10;;
15490;SDS011;7847;50.930;4.336;2022-08-19T02:35:04;0.10;;;0.10;;
15490;SDS011;7847;50.930;4.336;2022-08-19T02:37:30;0.10;;;0.10;;
15490;SDS011;7847;50.930;4.336;2022-08-19T02:40:14;0.10;;;0.10;;
15490;SDS011;7847;50.930;4.336;2022-08-19T02:42:42;0.10;;;0.10;;
15490;SDS011;7847;50.930;4.336;2022-08-19T02:45:10;0.10;;;0.10;;
15490;SDS011;7847;50.930;4.336;2022-08-19T02:47:36;0.10;;;0.10;;
15490;SDS011;7847;50.930;4.336;2022-08-19T02:50:02;0.10;;;0.10;;
15490;SDS011;7847;50.930;4.336;2022-08-19T02:52:29;0.17;;;0.17;;
15490;SDS011;7847;50.930;4.336;2022-08-19T02:54:55;0.10;;;0.10;;
15490;SDS011;7847;50.930;4.336;2022-08-19T02:57:22;0.10;;;0.10;;
15490;SDS011;7847;50.930;4.336;2022-08-19T02:59:48;0.10;;;0.10;;
15490;SDS011;7847;50.930;4.336;2022-08-19T03:02:14;0.10;;;0.10;;
15490;SDS011;7847;50.930;4.336;2022-08-19T03:04:42;0.10;;;0.10;;
15490;SDS011;7847;50.930;4.336;2022-08-19T03:07:08;0.10;;;0.10;;
15490;SDS011;7847;50.930;4.336;2022-08-19T03:09:36;0.10;;;0.10;;
15490;SDS011;7847;50.930;4.336;2022-08-19T03:12:03;0.10;;;0.10;;
15490;SDS011;7847;50.930;4.336;2022-08-19T03:14:32;0.10;;;0.10;;
15490;SDS011;7847;50.930;4.336;2022-08-19T03:16:59;0.10;;;0.10;;
15490;SDS011;7847;50.930;4.336;2022-08-19T03:19:25;0.10;;;0.10;;
15490;SDS011;7847;50.930;4.336;2022-08-19T03:21:52;0.10;;;0.10;;
15490;SDS011;7847;50.930;4.336;2022-08-19T03:24:20;0.10;;;0.10;;
15490;SDS011;7847;50.930;4.336;2022-08-19T03:26:47;0.10;;;0.10;;
15490;SDS011;7847;50.930;4.336;2022-08-19T03:29:14;0.10;;;0.10;;
15490;SDS011;7847;50.930;4.336;2022-08-19T03:31:41;0.10;;;0.10;;
15490;SDS011;7847;50.930;4.336;2022-08-19T03:34:08;0.10;;;0.10;;
15490;SDS011;7847;50.930;4.336;2022-08-19T03:36:34;0.10;;;0.10;;
15490;SDS011;7847;50.930;4.336;2022-08-19T03:39:01;0.10;;;0.10;;
15490;SDS011;7847;50.930;4.336;2022-08-19T03:41:28;0.10;;;0.10;;
15490;SDS011;7847;50.930;4.336;2022-08-19T03:43:55;0.10;;;0.10;;
15490;SDS011;7847;50.930;4.336;2022-08-19T03:46:24;0.20;;;0.20;;
15490;SDS011;7847;50.930;4.336;2022-08-19T03:48:51;0.10;;;0.10;;
15490;SDS011;7847;50.930;4.336;2022-08-19T03:51:32;0.20;;;0.20;;
15490;SDS011;7847;50.930;4.336;2022-08-19T03:54:00;0.10;;;0.10;;
15490;SDS011;7847;50.930;4.336;2022-08-19T03:56:27;0.10;;;0.10;;
15490;SDS011;7847;50.930;4.336;2022-08-19T03:58:54;0.20;;;0.20;;
15490;SDS011;7847;50.930;4.336;2022-08-19T04:01:22;0.10;;;0.10;;
15490;SDS011;7847;50.930;4.336;2022-08-19T04:03:48;0.10;;;0.10;;
15490;SDS011;7847;50.930;4.336;2022-08-19T04:06:18;0.10;;;0.10;;
15490;SDS011;7847;50.930;4.336;2022-08-19T04:08:46;0.20;;;0.20;;
15490;SDS011;7847;50.930;4.336;2022-08-19T04:11:14;0.20;;;0.20;;
15490;SDS011;7847;50.930;4.336;2022-08-19T04:13:40;0.10;;;0.10;;
15490;SDS011;7847;50.930;4.336;2022-08-19T04:16:10;0.10;;;0.10;;
15490;SDS011;7847;50.930;4.336;2022-08-19T04:18:37;0.10;;;0.10;;
15490;SDS011;7847;50.930;4.336;2022-08-19T04:21:04;0.10;;;0.10;;
15490;SDS011;7847;50.930;4.336;2022-08-19T04:23:30;0.10;;;0.10;;
15490;SDS011;7847;50.930;4.336;2022-08-19T04:25:57;0.20;;;0.20;;
15490;SDS011;7847;50.930;4.336;2022-08-19T04:28:23;0.10;;;0.10;;
15490;SDS011;7847;50.930;4.336;2022-08-19T04:30:51;0.10;;;0.10;;
15490;SDS011;7847;50.930;4.336;2022-08-19T04:33:18;0.20;;;0.20;;
15490;SDS011;7847;50.930;4.336;2022-08-19T04:35:45;0.10;;;0.10;;
15490;SDS011;7847;50.930;4.336;2022-08-19T04:38:12;0.17;;;0.17;;
15490;SDS011;7847;50.930;4.336;2022-08-19T04:40:45;0.10;;;0.10;;
15490;SDS011;7847;50.930;4.336;2022-08-19T04:43:30;0.20;;;0.20;;
15490;SDS011;7847;50.930;4.336;2022-08-19T04:45:57;0.20;;;0.20;;
15490;SDS011;7847;50.930;4.336;2022-08-19T04:48:23;0.20;;;0.20;;
15490;SDS011;7847;50.930;4.336;2022-08-19T04:50:53;0.20;;;0.20;;
15490;SDS011;7847;50.930;4.336;2022-08-19T04:53:23;0.10;;;0.10;;
15490;SDS011;7847;50.930;4.336;2022-08-19T04:55:49;0.20;;;0.20;;
15490;SDS011;7847;50.930;4.336;2022-08-19T04:58:16;0.10;;;0.10;;
15490;SDS011;7847;50.930;4.336;2022-08-19T05:00:42;0.10;;;0.10;;
15490;SDS011;7847;50.930;4.336;2022-08-19T05:03:08;0.20;;;0.20;;
15490;SDS011;7847;50.930;4.336;2022-08-19T05:05:38;0.20;;;0.20;;
15490;SDS011;7847;50.930;4.336;2022-08-19T05:08:04;0.20;;;0.20;;
15490;SDS011;7847;50.930;4.336;2022-08-19T05:10:30;0.13;;;0.13;;
15490;SDS011;7847;50.930;4.336;2022-08-19T05:12:56;0.10;;;0.10;;
15490;SDS011;7847;50.930;4.336;2022-08-19T05:15:23;0.20;;;0.20;;
15490;SDS011;7847;50.930;4.336;2022-08-19T05:17:49;0.10;;;0.10;;
15490;SDS011;7847;50.930;4.336;2022-08-19T05:20:34;0.10;;;0.10;;
15490;SDS011;7847;50.930;4.336;2022-08-19T05:23:18;0.20;;;0.20;;
15490;SDS011;7847;50.930;4.336;2022-08-19T05:25:44;0.10;;;0.10;;
15490;SDS011;7847;50.930;4.336;2022-08-19T05:28:10;0.20;;;0.20;;
15490;SDS011;7847;50.930;4.336;2022-08-19T05:30:36;0.20;;;0.20;;
15490;SDS011;7847;50.930;4.336;2022-08-19T05:33:02;0.20;;;0.20;;
15490;SDS011;7847;50.930;4.336;2022-08-19T05:35:28;0.10;;;0.10;;
15490;SDS011;7847;50.930;4.336;2022-08-19T05:37:55;0.20;;;0.20;;
15490;SDS011;7847;50.930;4.336;2022-08-19T05:40:21;0.10;;;0.10;;
15490;SDS011;7847;50.930;4.336;2022-08-19T05:42:47;0.20;;;0.20;;
15490;SDS011;7847;50.930;4.336;2022-08-19T05:45:14;0.20;;;0.20;;
15490;SDS011;7847;50.930;4.336;2022-08-19T05:47:40;0.10;;;0.10;;
15490;SDS011;7847;50.930;4.336;2022-08-19T05:50:07;0.10;;;0.10;;
15490;SDS011;7847;50.930;4.336;2022-08-19T05:52:33;0.20;;;0.20;;
15490;SDS011;7847;50.930;4.336;2022-08-19T05:55:02;0.10;;;0.10;;
15490;SDS011;7847;50.930;4.336;2022-08-19T05:57:29;0.10;;;0.10;;
15490;SDS011;7847;50.930;4.336;2022-08-19T05:59:55;0.10;;;0.10;;
15490;SDS011;7847;50.930;4.336;2022-08-19T06:02:22;0.20;;;0.20;;
15490;SDS011;7847;50.930;4.336;2022-08-19T06:04:48;0.10;;;0.10;;
15490;SDS011;7847;50.930;4.336;2022-08-19T06:07:14;0.10;;;0.10;;
15490;SDS011;7847;50.930;4.336;2022-08-19T06:09:41;0.10;;;0.10;;
15490;SDS011;7847;50.930;4.336;2022-08-19T06:12:07;0.20;;;0.20;;
15490;SDS011;7847;50.930;4.336;2022-08-19T06:14:34;0.10;;;0.10;;
15490;SDS011;7847;50.930;4.336;2022-08-19T06:17:01;0.10;;;0.10;;
15490;SDS011;7847;50.930;4.336;2022-08-19T06:19:28;0.10;;;0.10;;
15490;SDS011;7847;50.930;4.336;2022-08-19T06:21:58;0.20;;;0.20;;
15490;SDS011;7847;50.930;4.336;2022-08-19T06:24:25;0.20;;;0.20;;
15490;SDS011;7847;50.930;4.336;2022-08-19T06:26:52;0.20;;;0.20;;
15490;SDS011;7847;50.930;4.336;2022-08-19T06:29:19;0.10;;;0.10;;
15490;SDS011;7847;50.930;4.336;2022-08-19T06:31:49;0.03;;;0.03;;
15490;SDS011;7847;50.930;4.336;2022-08-19T06:34:16;0.10;;;0.10;;
15490;SDS011;7847;50.930;4.336;2022-08-19T06:36:43;0.10;;;0.10;;
15490;SDS011;7847;50.930;4.336;2022-08-19T06:39:11;0.10;;;0.10;;
15490;SDS011;7847;50.930;4.336;2022-08-19T06:41:38;0.10;;;0.10;;
15490;SDS011;7847;50.930;4.336;2022-08-19T06:44:05;0.10;;;0.10;;
15490;SDS011;7847;50.930;4.336;2022-08-19T06:46:31;0.10;;;0.10;;
15490;SDS011;7847;50.930;4.336;2022-08-19T06:48:57;0.10;;;0.10;;
15490;SDS011;7847;50.930;4.336;2022-08-19T06:51:24;0.15;;;0.15;;
15490;SDS011;7847;50.930;4.336;2022-08-19T06:53:51;0.10;;;0.10;;
15490;SDS011;7847;50.930;4.336;2022-08-19T06:56:18;0.10;;;0.10;;
15490;SDS011;7847;50.930;4.336;2022-08-19T06:58:46;0.10;;;0.10;;
15490;SDS011;7847;50.930;4.336;2022-08-19T07:01:13;0.10;;;0.10;;
15490;SDS011;7847;50.930;4.336;2022-08-19T07:03:39;0.00;;;0.00;;
15490;SDS011;7847;50.930;4.336;2022-08-19T07:06:06;0.10;;;0.10;;
15490;SDS011;7847;50.930;4.336;2022-08-19T07:08:33;0.10;;;0.10;;
15490;SDS011;7847;50.930;4.336;2022-08-19T07:11:01;0.10;;;0.10;;
15490;SDS011;7847;50.930;4.336;2022-08-19T07:13:27;0.10;;;0.10;;
15490;SDS011;7847;50.930;4.336;2022-08-19T07:15:53;0.10;;;0.10;;
15490;SDS011;7847;50.930;4.336;2022-08-19T07:18:19;0.10;;;0.10;;
15490;SDS011;7847;50.930;4.336;2022-08-19T07:20:46;0.10;;;0.10;;
15490;SDS011;7847;50.930;4.336;2022-08-19T07:23:13;0.10;;;0.10;;
15490;SDS011;7847;50.930;4.336;2022-08-19T07:25:39;0.10;;;0.10;;
15490;SDS011;7847;50.930;4.336;2022-08-19T07:28:05;0.10;;;0.10;;
15490;SDS011;7847;50.930;4.336;2022-08-19T07:30:36;0.10;;;0.10;;
15490;SDS011;7847;50.930;4.336;2022-08-19T07:33:02;0.10;;;0.10;;
15490;SDS011;7847;50.930;4.336;2022-08-19T07:35:29;0.10;;;0.10;;
15490;SDS011;7847;50.930;4.336;2022-08-19T07:37:57;0.10;;;0.10;;
15490;SDS011;7847;50.930;4.336;2022-08-19T07:40:23;0.10;;;0.10;;
15490;SDS011;7847;50.930;4.336;2022-08-19T07:42:49;0.10;;;0.10;;
15490;SDS011;7847;50.930;4.336;2022-08-19T07:45:15;0.10;;;0.10;;
15490;SDS011;7847;50.930;4.336;2022-08-19T07:47:41;0.00;;;0.00;;
15490;SDS011;7847;50.930;4.336;2022-08-19T07:50:08;0.10;;;0.10;;
15490;SDS011;7847;50.930;4.336;2022-08-19T07:52:36;0.10;;;0.10;;
15490;SDS011;7847;50.930;4.336;2022-08-19T07:55:04;0.10;;;0.10;;
15490;SDS011;7847;50.930;4.336;2022-08-19T07:57:33;0.10;;;0.10;;
15490;SDS011;7847;50.930;4.336;2022-08-19T07:59:59;0.00;;;0.00;;
15490;SDS011;7847;50.930;4.336;2022-08-19T08:02:25;0.10;;;0.10;;
15490;SDS011;7847;50.930;4.336;2022-08-19T08:04:51;0.10;;;0.10;;
15490;SDS011;7847;50.930;4.336;2022-08-19T08:07:36;0.10;;;0.10;;
15490;SDS011;7847;50.930;4.336;2022-08-19T08:10:20;0.10;;;0.10;;
15490;SDS011;7847;50.930;4.336;2022-08-19T08:12:47;0.10;;;0.10;;
15490;SDS011;7847;50.930;4.336;2022-08-19T08:15:14;0.10;;;0.10;;
15490;SDS011;7847;50.930;4.336;2022-08-19T08:17:44;0.10;;;0.10;;
15490;SDS011;7847;50.930;4.336;2022-08-19T08:20:11;0.10;;;0.10;;
15490;SDS011;7847;50.930;4.336;2022-08-19T08:22:42;0.10;;;0.10;;
15490;SDS011;7847;50.930;4.336;2022-08-19T08:25:27;0.05;;;0.05;;
15490;SDS011;7847;50.930;4.336;2022-08-19T08:27:53;0.10;;;0.10;;
15490;SDS011;7847;50.930;4.336;2022-08-19T08:30:22;0.10;;;0.10;;
15490;SDS011;7847;50.930;4.336;2022-08-19T08:32:49;0.10;;;0.10;;
15490;SDS011;7847;50.930;4.336;2022-08-19T08:35:16;0.00;;;0.00;;
15490;SDS011;7847;50.930;4.336;2022-08-19T08:37:43;0.10;;;0.10;;
15490;SDS011;7847;50.930;4.336;2022-08-19T08:40:16;0.10;;;0.10;;
15490;SDS011;7847;50.930;4.336;2022-08-19T08:42:45;0.00;;;0.00;;
15490;SDS011;7847;50.930;4.336;2022-08-19T08:45:13;0.10;;;0.10;;
15490;SDS011;7847;50.930;4.336;2022-08-19T08:47:41;0.10;;;0.10;;
15490;SDS011;7847;50.930;4.336;2022-08-19T08:50:31;0.00;;;0.00;;
15490;SDS011;7847;50.930;4.336;2022-08-19T08:52:55;0.10;;;0.10;;
15490;SDS011;7847;50.930;4.336;2022-08-19T08:55:23;0.10;;;0.10;;
15490;SDS011;7847;50.930;4.336;2022-08-19T09:00:20;0.00;;;0.00;;
15490;SDS011;7847;50.930;4.336;2022-08-19T09:02:47;0.00;;;0.00;;
15490;SDS011;7847;50.930;4.336;2022-08-19T09:05:13;0.10;;;0.10;;
15490;SDS011;7847;50.930;4.336;2022-08-19T09:15:37;0.00;;;0.00;;
15490;SDS011;7847;50.930;4.336;2022-08-19T09:18:04;0.00;;;0.00;;
15490;SDS011;7847;50.930;4.336;2022-08-19T09:20:31;0.10;;;0.10;;
15490;SDS011;7847;50.930;4.336;2022-08-19T09:22:57;0.10;;;0.10;;
15490;SDS011;7847;50.930;4.336;2022-08-19T09:25:23;0.00;;;0.00;;
15490;SDS011;7847;50.930;4.336;2022-08-19T09:27:50;0.00;;;0.00;;
15490;SDS011;7847;50.930;4.336;2022-08-19T09:30:22;0.10;;;0.10;;
15490;SDS011;7847;50.930;4.336;2022-08-19T09:32:49;0.00;;;0.00;;
15490;SDS011;7847;50.930;4.336;2022-08-19T09:35:18;0.00;;;0.00;;
15490;SDS011;7847;50.930;4.336;2022-08-19T09:37:44;0.10;;;0.10;;
15490;SDS011;7847;50.930;4.336;2022-08-19T09:40:10;0.10;;;0.10;;
15490;SDS011;7847;50.930;4.336;2022-08-19T09:42:37;0.00;;;0.00;;
15490;SDS011;7847;50.930;4.336;2022-08-19T09:45:03;0.10;;;0.10;;
15490;SDS011;7847;50.930;4.336;2022-08-19T09:47:29;0.05;;;0.05;;
15490;SDS011;7847;50.930;4.336;2022-08-19T09:49:55;0.03;;;0.03;;
15490;SDS011;7847;50.930;4.336;2022-08-19T09:52:22;0.10;;;0.10;;
15490;SDS011;7847;50.930;4.336;2022-08-19T09:54:51;0.05;;;0.05;;
15490;SDS011;7847;50.930;4.336;2022-08-19T09:57:17;0.00;;;0.00;;
15490;SDS011;7847;50.930;4.336;2022-08-19T09:59:44;0.00;;;0.00;;
15490;SDS011;7847;50.930;4.336;2022-08-19T10:02:10;0.10;;;0.10;;
15490;SDS011;7847;50.930;4.336;2022-08-19T10:04:36;0.10;;;0.10;;
15490;SDS011;7847;50.930;4.336;2022-08-19T10:07:21;0.00;;;0.00;;
15490;SDS011;7847;50.930;4.336;2022-08-19T10:09:47;0.00;;;0.00;;
15490;SDS011;7847;50.930;4.336;2022-08-19T10:12:13;0.00;;;0.00;;
15490;SDS011;7847;50.930;4.336;2022-08-19T10:14:40;0.00;;;0.00;;
15490;SDS011;7847;50.930;4.336;2022-08-19T10:17:07;0.00;;;0.00;;
15490;SDS011;7847;50.930;4.336;2022-08-19T10:19:33;0.10;;;0.10;;
15490;SDS011;7847;50.930;4.336;2022-08-19T10:22:06;0.00;;;0.00;;
15490;SDS011;7847;50.930;4.336;2022-08-19T10:24:33;0.08;;;0.08;;
15490;SDS011;7847;50.930;4.336;2022-08-19T10:27:00;0.00;;;0.00;;
15490;SDS011;7847;50.930;4.336;2022-08-19T10:29:30;0.00;;;0.00;;
15490;SDS011;7847;50.930;4.336;2022-08-19T10:31:57;0.03;;;0.03;;
15490;SDS011;7847;50.930;4.336;2022-08-19T10:34:25;0.00;;;0.00;;
15490;SDS011;7847;50.930;4.336;2022-08-19T10:36:51;0.00;;;0.00;;
15490;SDS011;7847;50.930;4.336;2022-08-19T10:39:17;0.00;;;0.00;;
15490;SDS011;7847;50.930;4.336;2022-08-19T10:41:43;0.00;;;0.00;;
15490;SDS011;7847;50.930;4.336;2022-08-19T10:44:10;0.00;;;0.00;;
15490;SDS011;7847;50.930;4.336;2022-08-19T10:46:38;0.00;;;0.00;;
15490;SDS011;7847;50.930;4.336;2022-08-19T10:49:06;0.00;;;0.00;;
15490;SDS011;7847;50.930;4.336;2022-08-19T10:51:33;0.00;;;0.00;;
15490;SDS011;7847;50.930;4.336;2022-08-19T10:54:18;0.00;;;0.00;;
15490;SDS011;7847;50.930;4.336;2022-08-19T10:56:44;0.00;;;0.00;;
15490;SDS011;7847;50.930;4.336;2022-08-19T10:59:17;0.00;;;0.00;;
15490;SDS011;7847;50.930;4.336;2022-08-19T11:01:44;0.00;;;0.00;;
15490;SDS011;7847;50.930;4.336;2022-08-19T11:04:11;0.00;;;0.00;;
15490;SDS011;7847;50.930;4.336;2022-08-19T11:06:38;0.03;;;0.03;;
15490;SDS011;7847;50.930;4.336;2022-08-19T11:09:06;0.10;;;0.10;;
15490;SDS011;7847;50.930;4.336;2022-08-19T11:11:32;0.10;;;0.10;;
15490;SDS011;7847;50.930;4.336;2022-08-19T11:14:12;0.00;;;0.00;;
15490;SDS011;7847;50.930;4.336;2022-08-19T11:16:39;0.03;;;0.03;;
15490;SDS011;7847;50.930;4.336;2022-08-19T11:19:05;0.00;;;0.00;;
15490;SDS011;7847;50.930;4.336;2022-08-19T11:21:34;0.00;;;0.00;;
15490;SDS011;7847;50.930;4.336;2022-08-19T11:24:01;0.00;;;0.00;;
15490;SDS011;7847;50.930;4.336;2022-08-19T11:26:29;0.00;;;0.00;;
15490;SDS011;7847;50.930;4.336;2022-08-19T11:28:58;0.00;;;0.00;;
15490;SDS011;7847;50.930;4.336;2022-08-19T11:31:26;0.00;;;0.00;;
15490;SDS011;7847;50.930;4.336;2022-08-19T11:33:53;0.00;;;0.00;;
15490;SDS011;7847;50.930;4.336;2022-08-19T11:36:20;0.00;;;0.00;;
15490;SDS011;7847;50.930;4.336;2022-08-19T11:38:47;0.10;;;0.10;;
15490;SDS011;7847;50.930;4.336;2022-08-19T11:41:14;0.00;;;0.00;;
15490;SDS011;7847;50.930;4.336;2022-08-19T11:43:40;0.03;;;0.03;;
15490;SDS011;7847;50.930;4.336;2022-08-19T11:46:07;0.00;;;0.00;;
15490;SDS011;7847;50.930;4.336;2022-08-19T11:48:33;0.00;;;0.00;;
15490;SDS011;7847;50.930;4.336;2022-08-19T11:51:02;0.00;;;0.00;;
15490;SDS011;7847;50.930;4.336;2022-08-19T11:53:30;0.00;;;0.00;;
15490;SDS011;7847;50.930;4.336;2022-08-19T11:55:57;0.00;;;0.00;;
15490;SDS011;7847;50.930;4.336;2022-08-19T11:58:23;0.10;;;0.10;;
15490;SDS011;7847;50.930;4.336;2022-08-19T12:00:49;0.00;;;0.00;;
15490;SDS011;7847;50.930;4.336;2022-08-19T12:03:16;0.00;;;0.00;;
15490;SDS011;7847;50.930;4.336;2022-08-19T12:05:43;0.00;;;0.00;;
15490;SDS011;7847;50.930;4.336;2022-08-19T12:08:09;0.00;;;0.00;;
15490;SDS011;7847;50.930;4.336;2022-08-19T12:10:37;0.00;;;0.00;;
15490;SDS011;7847;50.930;4.336;2022-08-19T12:13:04;0.00;;;0.00;;
15490;SDS011;7847;50.930;4.336;2022-08-19T12:15:34;0.00;;;0.00;;
15490;SDS011;7847;50.930;4.336;2022-08-19T12:18:00;0.00;;;0.00;;
15490;SDS011;7847;50.930;4.336;2022-08-19T12:20:26;0.00;;;0.00;;
15490;SDS011;7847;50.930;4.336;2022-08-19T12:22:52;0.00;;;0.00;;
15490;SDS011;7847;50.930;4.336;2022-08-19T12:25:19;0.00;;;0.00;;
15490;SDS011;7847;50.930;4.336;2022-08-19T12:27:45;0.00;;;0.00;;
15490;SDS011;7847;50.930;4.336;2022-08-19T12:30:12;0.08;;;0.08;;
15490;SDS011;7847;50.930;4.336;2022-08-19T12:32:38;0.00;;;0.00;;
15490;SDS011;7847;50.930;4.336;2022-08-19T12:35:05;0.00;;;0.00;;
15490;SDS011;7847;50.930;4.336;2022-08-19T12:37:31;0.00;;;0.00;;
15490;SDS011;7847;50.930;4.336;2022-08-19T12:39:58;0.00;;;0.00;;
15490;SDS011;7847;50.930;4.336;2022-08-19T12:42:24;0.00;;;0.00;;
15490;SDS011;7847;50.930;4.336;2022-08-19T12:44:50;0.00;;;0.00;;
15490;SDS011;7847;50.930;4.336;2022-08-19T12:47:16;0.00;;;0.00;;
15490;SDS011;7847;50.930;4.336;2022-08-19T12:49:43;0.00;;;0.00;;
15490;SDS011;7847;50.930;4.336;2022-08-19T12:52:10;0.00;;;0.00;;
15490;SDS011;7847;50.930;4.336;2022-08-19T12:54:40;0.00;;;0.00;;
15490;SDS011;7847;50.930;4.336;2022-08-19T12:57:06;0.00;;;0.00;;
15490;SDS011;7847;50.930;4.336;2022-08-19T12:59:37;0.00;;;0.00;;
15490;SDS011;7847;50.930;4.336;2022-08-19T13:02:04;0.00;;;0.00;;
15490;SDS011;7847;50.930;4.336;2022-08-19T13:04:31;0.00;;;0.00;;
15490;SDS011;7847;50.930;4.336;2022-08-19T13:06:58;0.00;;;0.00;;
15490;SDS011;7847;50.930;4.336;2022-08-19T13:09:24;0.00;;;0.00;;
15490;SDS011;7847;50.930;4.336;2022-08-19T13:11:50;0.00;;;0.00;;
15490;SDS011;7847;50.930;4.336;2022-08-19T13:14:16;0.00;;;0.00;;
15490;SDS011;7847;50.930;4.336;2022-08-19T13:16:42;0.00;;;0.00;;
15490;SDS011;7847;50.930;4.336;2022-08-19T13:19:08;0.00;;;0.00;;
15490;SDS011;7847;50.930;4.336;2022-08-19T13:21:35;0.00;;;0.00;;
15490;SDS011;7847;50.930;4.336;2022-08-19T13:24:02;0.00;;;0.00;;
15490;SDS011;7847;50.930;4.336;2022-08-19T13:26:28;0.00;;;0.00;;
15490;SDS011;7847;50.930;4.336;2022-08-19T13:28:54;0.00;;;0.00;;
15490;SDS011;7847;50.930;4.336;2022-08-19T13:31:39;0.00;;;0.00;;
15490;SDS011;7847;50.930;4.336;2022-08-19T13:34:27;0.00;;;0.00;;
15490;SDS011;7847;50.930;4.336;2022-08-19T13:36:54;0.00;;;0.00;;
15490;SDS011;7847;50.930;4.336;2022-08-19T13:39:20;0.00;;;0.00;;
15490;SDS011;7847;50.930;4.336;2022-08-19T13:41:48;0.00;;;0.00;;
15490;SDS011;7847;50.930;4.336;2022-08-19T13:44:15;0.00;;;0.00;;
15490;SDS011;7847;50.930;4.336;2022-08-19T13:46:43;0.00;;;0.00;;
15490;SDS011;7847;50.930;4.336;2022-08-19T13:49:10;0.00;;;0.00;;
15490;SDS011;7847;50.930;4.336;2022-08-19T13:51:37;0.00;;;0.00;;
15490;SDS011;7847;50.930;4.336;2022-08-19T13:54:04;0.00;;;0.00;;
15490;SDS011;7847;50.930;4.336;2022-08-19T13:56:30;0.00;;;0.00;;
15490;SDS011;7847;50.930;4.336;2022-08-19T13:58:57;0.00;;;0.00;;
15490;SDS011;7847;50.930;4.336;2022-08-19T14:01:23;0.00;;;0.00;;
15490;SDS011;7847;50.930;4.336;2022-08-19T14:03:49;0.00;;;0.00;;
15490;SDS011;7847;50.930;4.336;2022-08-19T14:06:16;0.00;;;0.00;;
15490;SDS011;7847;50.930;4.336;2022-08-19T14:08:42;0.00;;;0.00;;
15490;SDS011;7847;50.930;4.336;2022-08-19T14:11:09;0.00;;;0.00;;
15490;SDS011;7847;50.930;4.336;2022-08-19T14:13:35;0.00;;;0.00;;
15490;SDS011;7847;50.930;4.336;2022-08-19T14:16:05;0.00;;;0.00;;
15490;SDS011;7847;50.930;4.336;2022-08-19T14:18:32;0.00;;;0.00;;
15490;SDS011;7847;50.930;4.336;2022-08-19T14:20:58;0.00;;;0.00;;
15490;SDS011;7847;50.930;4.336;2022-08-19T14:23:24;0.00;;;0.00;;
15490;SDS011;7847;50.930;4.336;2022-08-19T14:25:50;0.00;;;0.00;;
15490;SDS011;7847;50.930;4.336;2022-08-19T14:28:16;0.00;;;0.00;;
15490;SDS011;7847;50.930;4.336;2022-08-19T14:30:42;0.00;;;0.00;;
15490;SDS011;7847;50.930;4.336;2022-08-19T14:33:09;0.00;;;0.00;;
15490;SDS011;7847;50.930;4.336;2022-08-19T14:35:35;0.00;;;0.00;;
15490;SDS011;7847;50.930;4.336;2022-08-19T14:38:02;0.00;;;0.00;;
15490;SDS011;7847;50.930;4.336;2022-08-19T14:40:30;0.00;;;0.00;;
15490;SDS011;7847;50.930;4.336;2022-08-19T14:42:57;0.00;;;0.00;;
15490;SDS011;7847;50.930;4.336;2022-08-19T14:45:27;0.00;;;0.00;;
15490;SDS011;7847;50.930;4.336;2022-08-19T14:47:54;0.00;;;0.00;;
15490;SDS011;7847;50.930;4.336;2022-08-19T14:50:20;0.00;;;0.00;;
15490;SDS011;7847;50.930;4.336;2022-08-19T14:52:46;0.00;;;0.00;;
15490;SDS011;7847;50.930;4.336;2022-08-19T14:55:13;0.00;;;0.00;;
15490;SDS011;7847;50.930;4.336;2022-08-19T14:57:42;0.00;;;0.00;;
15490;SDS011;7847;50.930;4.336;2022-08-19T15:00:09;0.00;;;0.00;;
15490;SDS011;7847;50.930;4.336;2022-08-19T15:02:39;0.00;;;0.00;;
15490;SDS011;7847;50.930;4.336;2022-08-19T15:05:05;0.00;;;0.00;;
15490;SDS011;7847;50.930;4.336;2022-08-19T15:07:31;0.00;;;0.00;;
15490;SDS011;7847;50.930;4.336;2022-08-19T15:09:57;0.00;;;0.00;;
15490;SDS011;7847;50.930;4.336;2022-08-19T15:12:24;0.00;;;0.00;;